Time;durP1;ratioP1;P1;durP2;ratioP2;P2;SDS_P1;SDS_P2;PMS_P1;PMS_P2;Temp;Humidity;BMP_temperature;BMP_pressure;BME280_temperature;BME280_humidity;BME280_pressure;Samples;Min_cycle;Max_cycle;Signal;HPM_P1;HPM_P2
2020/12/10 00:00:44;;;;;;;44.77;19.87;;;;;;;-3.30;87.34;96405.75;1752603;80;21136;-50
2020/12/10 00:03:12;;;;;;;44.10;19.83;;;;;;;-3.30;87.48;96413.36;1759954;81;21065;-50
2020/12/10 00:05:40;;;;;;;36.38;16.70;;;;;;;-3.21;87.36;96410.22;1756256;81;21062;-50
2020/12/10 00:08:07;;;;;;;42.90;18.10;;;;;;;-3.21;87.06;96406.83;1761452;80;21045;-50
2020/12/10 00:10:35;;;;;;;42.67;18.45;;;;;;;-3.22;87.02;96403.46;1749338;80;21555;-50
2020/12/10 00:13:02;;;;;;;47.75;20.35;;;;;;;-3.27;87.09;96397.64;1738312;81;21140;-51
2020/12/10 00:15:30;;;;;;;39.92;19.30;;;;;;;-3.30;87.25;96394.33;1753340;80;21191;-52
2020/12/10 00:17:57;;;;;;;37.60;18.35;;;;;;;-3.30;87.38;96393.06;1729612;83;21077;-51
2020/12/10 00:20:26;;;;;;;45.12;18.57;;;;;;;-3.29;87.35;96398.52;1724265;82;21081;-51
2020/12/10 00:22:53;;;;;;;51.65;20.40;;;;;;;-3.29;87.32;96404.45;1733651;82;21365;-51
2020/12/10 00:25:21;;;;;;;48.55;19.05;;;;;;;-3.27;87.44;96395.52;1740821;81;21176;-51
2020/12/10 00:27:49;;;;;;;47.60;19.45;;;;;;;-3.23;87.24;96395.44;1735407;81;21531;-51
2020/12/10 00:30:16;;;;;;;42.80;18.95;;;;;;;-3.25;87.22;96393.81;1743415;82;21169;-51
2020/12/10 00:32:43;;;;;;;38.90;18.90;;;;;;;-3.23;87.32;96398.41;1733844;81;21128;-51
2020/12/10 00:35:11;;;;;;;35.95;16.85;;;;;;;-3.20;87.17;96388.20;1725985;82;21220;-51
2020/12/10 00:37:39;;;;;;;39.38;16.87;;;;;;;-3.15;87.09;96393.58;1728284;82;21094;-51
2020/12/10 00:40:09;;;;;;;37.80;16.17;;;;;;;-3.15;86.82;96401.20;1744571;81;21065;-51
2020/12/10 00:42:37;;;;;;;39.92;16.93;;;;;;;-3.22;86.99;96388.23;1749073;82;21136;-50
2020/12/10 00:45:05;;;;;;;36.88;18.40;;;;;;;-3.26;87.24;96384.52;1766009;80;21133;-50
2020/12/10 00:47:33;;;;;;;44.65;18.32;;;;;;;-3.27;87.42;96382.83;1733857;81;21209;-50
2020/12/10 00:50:01;;;;;;;52.50;19.98;;;;;;;-3.28;87.50;96393.86;1751979;80;21162;-51
2020/12/10 00:52:30;;;;;;;31.00;14.55;;;;;;;-3.23;87.58;96380.65;1742035;82;21070;-50
2020/12/10 00:55:00;;;;;;;33.08;18.23;;;;;;;-3.21;87.39;96363.69;1732790;82;21079;-51
2020/12/10 00:57:29;;;;;;;34.03;16.97;;;;;;;-3.20;87.35;96369.17;1733535;81;21513;-51
2020/12/10 00:59:57;;;;;;;36.77;16.80;;;;;;;-3.18;87.45;96368.26;1733888;81;21412;-51
2020/12/10 01:02:26;;;;;;;56.58;17.07;;;;;;;-3.17;87.27;96363.59;1749449;81;21148;-51
2020/12/10 01:04:53;;;;;;;44.38;16.35;;;;;;;-3.17;87.30;96374.20;1744127;81;21124;-52
2020/12/10 01:07:21;;;;;;;39.00;16.70;;;;;;;-3.17;87.41;96364.87;1750907;81;21200;-51
2020/12/10 01:09:49;;;;;;;58.30;20.50;;;;;;;-3.13;87.34;96358.47;1728214;81;21663;-51
2020/12/10 01:12:17;;;;;;;45.33;18.35;;;;;;;-3.11;87.36;96361.80;1715292;83;21393;-51
2020/12/10 01:14:45;;;;;;;53.73;18.37;;;;;;;-3.04;87.27;96345.59;1732128;82;21121;-51
2020/12/10 01:17:13;;;;;;;56.37;19.50;;;;;;;-2.97;87.00;96342.05;1722895;83;21158;-51
2020/12/10 01:19:40;;;;;;;45.48;18.57;;;;;;;-2.93;86.93;96341.55;1727072;82;21070;-51
2020/12/10 01:22:08;;;;;;;62.00;17.73;;;;;;;-2.85;86.72;96337.14;1724116;81;21069;-51
2020/12/10 01:24:37;;;;;;;36.45;15.98;;;;;;;-2.75;86.56;96353.84;1735509;82;21606;-52
2020/12/10 01:27:05;;;;;;;48.45;16.57;;;;;;;-2.65;86.19;96337.97;1726263;82;21126;-52
2020/12/10 01:29:32;;;;;;;28.92;14.65;;;;;;;-2.56;86.08;96325.07;1741143;81;21108;-52
2020/12/10 01:32:00;;;;;;;25.10;11.90;;;;;;;-2.54;85.27;96323.33;1725583;82;21090;-51
2020/12/10 01:34:27;;;;;;;26.68;14.73;;;;;;;-2.66;85.14;96315.55;1729494;83;21077;-51
2020/12/10 01:36:55;;;;;;;30.10;15.48;;;;;;;-2.80;85.48;96323.50;1713653;83;21330;-52
2020/12/10 01:39:23;;;;;;;32.98;14.95;;;;;;;-2.86;85.93;96310.07;1730363;82;21134;-52
2020/12/10 01:41:51;;;;;;;24.72;12.13;;;;;;;-2.90;86.20;96311.84;1725022;82;21195;-51
2020/12/10 01:44:18;;;;;;;27.50;14.45;;;;;;;-2.93;86.42;96310.64;1722196;83;21165;-51
2020/12/10 01:46:46;;;;;;;23.45;12.53;;;;;;;-2.97;86.60;96302.27;1715478;82;21130;-51
2020/12/10 01:49:14;;;;;;;27.00;14.27;;;;;;;-2.98;86.75;96293.41;1729688;83;21372;-51
2020/12/10 01:51:41;;;;;;;21.35;10.20;;;;;;;-2.99;86.77;96300.20;1724031;83;21168;-51
2020/12/10 01:54:09;;;;;;;30.85;16.82;;;;;;;-3.01;86.90;96293.06;1712620;83;21077;-51
2020/12/10 01:56:37;;;;;;;28.98;14.50;;;;;;;-3.01;86.90;96296.01;1711670;82;21201;-51
2020/12/10 01:59:05;;;;;;;28.62;14.65;;;;;;;-2.97;87.02;96274.33;1702480;83;21152;-52
2020/12/10 02:01:33;;;;;;;24.15;13.40;;;;;;;-2.92;86.77;96277.22;1718815;82;22240;-52
2020/12/10 02:04:02;;;;;;;31.82;16.55;;;;;;;-2.94;86.85;96281.47;1781055;79;21101;-51
2020/12/10 02:06:29;;;;;;;34.55;16.32;;;;;;;-2.93;86.81;96271.29;1802201;79;21070;-52
2020/12/10 02:08:57;;;;;;;24.70;13.62;;;;;;;-2.93;86.86;96280.62;1721381;82;21085;-52
2020/12/10 02:11:26;;;;;;;28.15;14.83;;;;;;;-2.89;86.87;96277.16;1717778;81;21133;-52
2020/12/10 02:13:54;;;;;;;27.80;13.53;;;;;;;-2.88;86.77;96268.66;1783147;79;21370;-52
2020/12/10 02:16:22;;;;;;;30.02;14.78;;;;;;;-2.89;86.75;96270.37;1731910;82;21145;-52
2020/12/10 02:18:55;;;;;;;23.80;13.75;;;;;;;-2.89;86.75;96283.06;1720620;83;21102;-52
2020/12/10 02:21:23;;;;;;;26.10;13.83;;;;;;;-2.90;86.83;96262.78;1707236;82;21122;-50
2020/12/10 02:23:56;;;;;;;26.10;14.00;;;;;;;-2.90;86.84;96260.24;1805719;79;21486;-50
2020/12/10 02:26:28;;;;;;;25.80;13.30;;;;;;;-2.90;86.88;96251.36;1733033;82;21213;-51
2020/12/10 02:28:59;;;;;;;22.60;12.65;;;;;;;-2.91;86.86;96242.91;1749706;79;21149;-51
2020/12/10 02:31:29;;;;;;;21.37;12.78;;;;;;;-2.94;86.96;96246.79;1784499;79;21101;-51
2020/12/10 02:34:01;;;;;;;18.70;11.08;;;;;;;-2.93;87.04;96242.53;1783168;79;21085;-51
2020/12/10 02:36:29;;;;;;;22.93;12.78;;;;;;;-2.91;87.08;96242.91;1790654;79;21139;-51
2020/12/10 02:38:57;;;;;;;25.30;13.20;;;;;;;-2.90;86.98;96230.60;1808243;79;21279;-51
2020/12/10 02:41:25;;;;;;;20.77;11.43;;;;;;;-2.91;86.98;96225.14;1738690;82;21168;-51
2020/12/10 02:43:53;;;;;;;20.10;10.30;;;;;;;-2.98;87.10;96215.56;1746330;82;21367;-51
2020/12/10 02:46:21;;;;;;;19.20;11.13;;;;;;;-3.03;87.37;96216.08;1782227;80;21136;-51
2020/12/10 02:48:51;;;;;;;19.05;10.95;;;;;;;-3.02;87.49;96217.77;1781033;80;21183;-51
2020/12/10 02:51:19;;;;;;;20.62;11.22;;;;;;;-3.06;87.61;96215.32;1783980;80;22068;-50
2020/12/10 02:53:47;;;;;;;18.07;11.03;;;;;;;-3.11;87.77;96204.00;1781912;80;21070;-50
2020/12/10 02:56:15;;;;;;;16.62;9.03;;;;;;;-3.07;87.87;96195.46;1784165;79;21202;-56
2020/12/10 02:58:43;;;;;;;;;;;;;;;-3.03;87.76;96203.39;1812735;79;21117;-50
2020/12/10 03:01:11;;;;;;;16.05;8.90;;;;;;;-3.03;87.71;96202.56;1754835;78;20264;-50
2020/12/10 03:03:39;;;;;;;13.30;7.58;;;;;;;-3.06;87.86;96200.95;1749715;81;21336;-50
2020/12/10 03:06:07;;;;;;;14.60;9.28;;;;;;;-3.09;87.96;96213.70;1694934;83;21100;-53
2020/12/10 03:08:36;;;;;;;16.52;9.58;;;;;;;-3.09;88.08;96220.46;1727960;83;21098;-52
2020/12/10 03:11:04;;;;;;;14.45;8.78;;;;;;;-3.08;88.06;96200.57;1727799;81;21128;-52
2020/12/10 03:13:33;;;;;;;15.65;8.80;;;;;;;-3.04;88.00;96192.86;1721840;82;21144;-52
2020/12/10 03:16:00;;;;;;;14.45;8.58;;;;;;;-3.00;87.91;96165.69;1756091;80;21167;-52
2020/12/10 03:18:28;;;;;;;12.63;8.78;;;;;;;-2.93;87.81;96186.69;1715090;82;21113;-52
2020/12/10 03:20:55;;;;;;;18.67;9.35;;;;;;;-2.91;87.57;96187.06;1733505;82;21232;-52
2020/12/10 03:23:23;;;;;;;12.82;8.08;;;;;;;-2.86;87.46;96172.96;1711014;82;21164;-51
2020/12/10 03:25:50;;;;;;;15.20;9.53;;;;;;;-2.80;87.55;96168.59;1741082;81;21085;-52
2020/12/10 03:28:18;;;;;;;10.38;7.55;;;;;;;-2.68;87.42;96166.19;1749134;81;21211;-52
2020/12/10 03:30:46;;;;;;;11.65;8.40;;;;;;;-2.57;86.61;96168.88;1734104;81;21093;-52
2020/12/10 03:33:13;;;;;;;13.03;8.35;;;;;;;-2.55;86.33;96170.52;1751474;82;21104;-52
2020/12/10 03:35:41;;;;;;;11.95;7.60;;;;;;;-2.50;86.35;96154.72;1729033;82;21534;-52
2020/12/10 03:38:09;;;;;;;10.68;7.37;;;;;;;-2.48;85.58;96155.51;1736118;81;21069;-52
2020/12/10 03:40:36;;;;;;;10.60;7.75;;;;;;;-2.54;85.60;96168.36;1738825;82;21226;-52
2020/12/10 03:43:04;;;;;;;10.82;7.58;;;;;;;-2.56;85.85;96178.19;1761922;81;22003;-52
2020/12/10 03:45:33;;;;;;;10.08;6.25;;;;;;;-2.56;85.78;96168.02;1740007;82;21128;-52
2020/12/10 03:48:01;;;;;;;11.63;8.05;;;;;;;-2.54;85.64;96170.08;1736694;81;21247;-52
2020/12/10 03:50:29;;;;;;;9.93;7.03;;;;;;;-2.55;85.65;96145.53;1729506;82;21065;-52
2020/12/10 03:52:57;;;;;;;9.00;6.60;;;;;;;-2.51;85.67;96154.77;1727721;81;21378;-52
2020/12/10 03:55:26;;;;;;;9.43;6.72;;;;;;;-2.47;85.45;96143.22;1745244;80;21494;-55
2020/12/10 03:57:55;;;;;;;10.60;6.45;;;;;;;-2.43;85.50;96147.77;1726859;81;21135;-52
2020/12/10 04:00:24;;;;;;;8.18;6.00;;;;;;;-2.39;85.10;96149.80;1730653;82;21127;-52
2020/12/10 04:02:52;;;;;;;11.38;6.85;;;;;;;-2.39;85.18;96142.98;1718750;82;21102;-52
2020/12/10 04:05:20;;;;;;;8.90;6.35;;;;;;;-2.36;84.89;96136.56;1744834;82;21381;-52
2020/12/10 04:07:47;;;;;;;9.78;6.65;;;;;;;-2.35;84.99;96134.84;1739958;81;21497;-52
2020/12/10 04:10:16;;;;;;;9.73;6.15;;;;;;;-2.27;84.97;96133.78;1744914;81;21140;-52
2020/12/10 04:12:44;;;;;;;7.97;5.40;;;;;;;-2.18;84.69;96127.61;1711573;82;21134;-52
2020/12/10 04:15:11;;;;;;;6.37;5.20;;;;;;;-2.14;83.93;96119.03;1735534;81;21369;-52
2020/12/10 04:17:39;;;;;;;8.83;5.15;;;;;;;-2.22;84.04;96116.70;1724198;83;22121;-52
2020/12/10 04:20:07;;;;;;;7.20;4.90;;;;;;;-2.29;84.11;96118.17;1726515;83;21153;-52
2020/12/10 04:22:35;;;;;;;6.90;4.50;;;;;;;-2.33;84.17;96125.50;1718190;82;21122;-52
2020/12/10 04:25:02;;;;;;;6.37;4.95;;;;;;;-2.35;84.46;96129.34;1710016;83;21675;-52
2020/12/10 04:27:30;;;;;;;6.12;4.70;;;;;;;-2.33;84.62;96127.59;1729515;83;21081;-52
2020/12/10 04:29:58;;;;;;;6.55;4.92;;;;;;;-2.27;84.41;96126.16;1718328;82;22360;-52
2020/12/10 04:32:25;;;;;;;5.97;4.50;;;;;;;-2.28;84.33;96123.21;1683173;84;21141;-52
2020/12/10 04:34:53;;;;;;;7.95;4.60;;;;;;;-2.33;84.53;96115.33;1700335;84;21136;-52
2020/12/10 04:37:21;;;;;;;6.50;4.65;;;;;;;-2.35;84.57;96115.78;1704815;83;21140;-52
2020/12/10 04:39:48;;;;;;;5.37;4.37;;;;;;;-2.37;84.79;96116.27;1728412;82;21201;-52
2020/12/10 04:42:18;;;;;;;6.25;4.50;;;;;;;-2.37;85.03;96115.00;1728845;83;22382;-49
2020/12/10 04:44:46;;;;;;;4.72;4.15;;;;;;;-2.36;85.06;96116.23;1735130;82;21145;-52
2020/12/10 04:47:14;;;;;;;5.85;3.85;;;;;;;-2.37;84.70;96111.19;1720170;83;21190;-52
2020/12/10 04:49:42;;;;;;;4.30;3.90;;;;;;;-2.41;84.74;96120.61;1737487;81;21153;-52
2020/12/10 04:52:10;;;;;;;4.50;3.72;;;;;;;-2.42;85.00;96121.47;1714735;82;21073;-52
2020/12/10 04:54:40;;;;;;;5.28;3.25;;;;;;;-2.42;84.54;96117.66;1727774;82;21205;-52
2020/12/10 04:57:10;;;;;;;4.20;3.60;;;;;;;-2.47;84.22;96113.14;1710208;83;21204;-52
2020/12/10 04:59:39;;;;;;;3.90;2.60;;;;;;;-2.52;84.46;96104.37;1723891;82;21090;-52
2020/12/10 05:02:13;;;;;;;3.77;3.02;;;;;;;-2.60;84.36;96108.81;1720183;82;21054;-52
2020/12/10 05:04:41;;;;;;;3.22;2.90;;;;;;;-2.66;84.61;96102.20;1724407;83;21074;-51
2020/12/10 05:07:08;;;;;;;3.45;3.10;;;;;;;-2.68;84.48;96108.19;1754132;81;21410;-52
2020/12/10 05:09:37;;;;;;;4.28;3.30;;;;;;;-2.72;84.77;96102.36;1717422;82;21066;-51
2020/12/10 05:12:17;;;;;;;4.70;3.10;;;;;;;-2.73;84.94;96103.25;1724661;83;21171;-52
2020/12/10 05:14:46;;;;;;;5.20;2.90;;;;;;;-2.74;84.88;96099.03;1739188;81;21133;-52
2020/12/10 05:17:15;;;;;;;6.78;3.25;;;;;;;-2.74;85.04;96103.28;1713091;83;21127;-53
2020/12/10 05:19:44;;;;;;;9.65;3.05;;;;;;;-2.74;85.03;96100.75;1711224;83;21416;-52
2020/12/10 05:22:11;;;;;;;3.45;2.62;;;;;;;-2.74;84.87;96102.02;1701119;83;21150;-52
2020/12/10 05:24:39;;;;;;;11.28;3.20;;;;;;;-2.75;84.53;96098.63;1723613;82;21082;-51
2020/12/10 05:27:22;;;;;;;2.77;2.52;;;;;;;-2.73;84.32;96101.13;1714715;83;21052;-51
2020/12/10 05:29:51;;;;;;;2.62;2.17;;;;;;;-2.72;84.17;96099.82;1690705;82;21197;-52
2020/12/10 05:32:41;;;;;;;2.70;2.50;;;;;;;-2.72;83.77;96098.55;1729363;83;21336;-52
2020/12/10 05:35:24;;;;;;;2.50;2.30;;;;;;;-2.75;83.90;96101.16;1721997;82;21090;-52
2020/12/10 05:37:53;;;;;;;10.68;2.40;;;;;;;-2.82;84.19;96099.66;1698106;82;21140;-52
2020/12/10 05:40:21;;;;;;;6.33;2.85;;;;;;;-2.83;84.63;96086.15;1714536;83;25784;-51
2020/12/10 05:42:51;;;;;;;6.12;2.47;;;;;;;-2.79;84.53;96090.70;1724060;82;21485;-52
2020/12/10 05:45:21;;;;;;;4.62;2.90;;;;;;;-2.73;84.56;96094.77;1722330;83;21501;-52
2020/12/10 05:47:53;;;;;;;12.80;3.17;;;;;;;-2.67;84.17;96094.18;1727909;82;21085;-50
2020/12/10 05:50:26;;;;;;;6.60;2.83;;;;;;;-2.61;83.97;96095.30;1725322;83;21073;-52
2020/12/10 05:53:10;;;;;;;7.47;2.55;;;;;;;-2.58;83.63;96093.13;1702933;83;21560;-52
2020/12/10 05:55:40;;;;;;;2.92;2.33;;;;;;;-2.56;83.54;96095.62;1715076;82;21086;-51
2020/12/10 05:58:08;;;;;;;2.65;2.35;;;;;;;-2.57;83.42;96090.14;1711745;82;21495;-51
2020/12/10 06:00:37;;;;;;;13.75;2.60;;;;;;;-2.60;83.02;96087.23;1741249;81;26192;-51
2020/12/10 06:03:06;;;;;;;2.37;2.00;;;;;;;-2.62;83.36;96080.09;1741232;81;21125;-54
2020/12/10 06:05:35;;;;;;;2.35;1.90;;;;;;;-2.65;83.43;96070.02;1767254;80;21614;-52
2020/12/10 06:08:08;;;;;;;1.90;1.65;;;;;;;-2.67;83.44;96073.86;1764894;79;21566;-52
2020/12/10 06:10:41;;;;;;;21.55;2.85;;;;;;;-2.68;83.28;96083.64;1714435;82;21382;-51
2020/12/10 06:13:10;;;;;;;5.12;2.45;;;;;;;-2.70;83.55;96074.38;1738410;82;21554;-51
2020/12/10 06:15:38;;;;;;;2.00;1.85;;;;;;;-2.73;83.49;96081.66;1782017;79;21049;-52
2020/12/10 06:18:13;;;;;;;7.92;3.40;;;;;;;-2.77;83.79;96075.80;1727619;82;21085;-52
2020/12/10 06:20:46;;;;;;;4.05;2.35;;;;;;;-2.75;83.78;96072.41;1800393;79;21183;-52
2020/12/10 06:26:28;;;;;;;2.33;2.13;;;;;;;-2.71;84.06;96064.67;1869753;75;22761;-57
2020/12/10 06:29:24;;;;;;;2.08;1.98;;;;;;;-2.76;84.12;96071.58;1827408;77;21642;-52
2020/12/10 06:32:14;;;;;;;5.45;2.90;;;;;;;-2.76;83.94;96088.09;1827874;78;22111;-51
2020/12/10 06:34:50;;;;;;;5.25;2.70;;;;;;;-2.78;84.40;96075.84;1812009;78;21221;-52
2020/12/10 06:37:26;;;;;;;12.73;2.80;;;;;;;-2.74;84.22;96079.16;1825688;77;21066;-54
2020/12/10 06:40:04;;;;;;;7.60;2.95;;;;;;;-2.72;84.21;96079.50;1814904;78;21063;-52
2020/12/10 06:42:48;;;;;;;7.53;2.15;;;;;;;-2.69;84.12;96081.97;1833257;78;21087;-51
2020/12/10 06:45:40;;;;;;;12.35;2.92;;;;;;;-2.70;83.91;96093.43;1811069;78;21196;-51
2020/12/10 06:48:15;;;;;;;26.25;4.70;;;;;;;-2.73;84.12;96077.86;1815308;78;21119;-51
2020/12/10 06:50:43;;;;;;;3.15;2.62;;;;;;;-2.72;84.51;96085.03;1808544;79;21015;-52
2020/12/10 06:53:21;;;;;;;3.08;2.72;;;;;;;-2.69;84.19;96077.33;1832355;78;21570;-52
2020/12/10 06:56:03;;;;;;;17.48;3.30;;;;;;;-2.66;84.43;96086.14;1839885;78;21110;-53
2020/12/10 06:58:42;;;;;;;10.38;2.70;;;;;;;-2.63;84.08;96096.23;1808660;78;21628;-52
2020/12/10 07:01:35;;;;;;;8.33;3.10;;;;;;;-2.64;84.33;96086.93;1808667;78;21161;-51
2020/12/10 07:04:37;;;;;;;6.83;3.42;;;;;;;-2.67;84.28;96091.64;1828248;77;21095;-51
2020/12/10 07:07:15;;;;;;;9.50;3.00;;;;;;;-2.71;84.48;96095.14;1780895;79;21481;-51
2020/12/10 07:09:54;;;;;;;27.15;5.55;;;;;;;-2.65;84.52;96090.33;1821189;78;21539;-52
2020/12/10 07:12:28;;;;;;;3.42;2.37;;;;;;;-2.61;84.68;96081.77;1839295;78;21082;-50
2020/12/10 07:18:01;;;;;;;6.47;2.87;;;;;;;-2.46;84.28;96076.72;1867547;76;22806;-51
2020/12/10 07:20:28;;;;;;;5.55;2.98;;;;;;;-2.54;84.17;96070.56;1815863;78;21067;-51
2020/12/10 07:22:56;;;;;;;8.28;2.90;;;;;;;-2.53;84.35;96081.55;1840255;78;21051;-51
2020/12/10 07:25:24;;;;;;;3.12;2.37;;;;;;;-2.53;84.54;96062.08;1841474;78;21091;-52
2020/12/10 07:27:53;;;;;;;9.03;2.87;;;;;;;-2.47;84.56;96063.19;1831606;78;20999;-51
2020/12/10 07:30:23;;;;;;;5.62;2.45;;;;;;;-2.40;84.27;96068.93;1821825;77;21167;-52
2020/12/10 07:32:55;;;;;;;4.70;2.55;;;;;;;-2.38;84.09;96076.06;1828754;78;21166;-51
2020/12/10 07:35:34;;;;;;;13.35;5.08;;;;;;;-2.37;84.32;96077.70;1821999;77;21363;-52
2020/12/10 07:38:15;;;;;;;7.85;2.92;;;;;;;-2.36;84.42;96069.67;1812130;78;21028;-52
2020/12/10 07:40:43;;;;;;;2.33;2.10;;;;;;;-2.37;84.61;96056.56;1822052;78;20978;-52
2020/12/10 07:43:11;;;;;;;3.67;2.37;;;;;;;-2.36;84.26;96049.34;1825023;78;21146;-52
2020/12/10 07:45:38;;;;;;;3.72;2.20;;;;;;;-2.34;84.61;96058.57;1805866;79;21067;-52
2020/12/10 07:48:06;;;;;;;17.50;4.40;;;;;;;-2.27;84.27;96058.81;1827435;78;21191;-51
2020/12/10 07:50:38;;;;;;;4.78;2.58;;;;;;;-2.25;84.36;96060.86;1841193;78;21090;-51
2020/12/10 07:53:09;;;;;;;9.25;3.35;;;;;;;-2.24;84.18;96068.89;1812404;78;21059;-51
2020/12/10 07:55:50;;;;;;;20.62;5.50;;;;;;;-2.23;84.38;96069.72;1840095;78;21035;-52
2020/12/10 07:59:00;;;;;;;13.13;3.42;;;;;;;-2.21;84.49;96071.77;1826715;78;21107;-51
2020/12/10 08:01:32;;;;;;;3.42;2.62;;;;;;;-2.14;84.38;96081.33;1836600;78;21591;-51
2020/12/10 08:04:18;;;;;;;3.70;2.47;;;;;;;-2.12;83.71;96055.41;1808422;79;21150;-52
2020/12/10 08:06:52;;;;;;;2.62;2.40;;;;;;;-2.17;83.93;96047.95;1808677;78;21098;-52
2020/12/10 08:09:19;;;;;;;2.90;2.33;;;;;;;-2.20;84.10;96032.78;1808503;79;21090;-51
2020/12/10 08:11:55;;;;;;;7.05;2.70;;;;;;;-2.20;84.28;96035.33;1763548;78;21061;-52
2020/12/10 08:14:30;;;;;;;2.60;2.30;;;;;;;-2.15;84.13;96033.92;1771438;80;21410;-52
2020/12/10 08:16:59;;;;;;;3.10;2.80;;;;;;;-2.14;84.16;96029.22;1783446;79;21103;-52
2020/12/10 08:22:15;;;;;;;4.47;2.47;;;;;;;-1.98;84.73;96027.88;1898187;74;22335;-51
2020/12/10 08:24:46;;;;;;;2.72;2.52;;;;;;;-1.90;84.43;96029.76;1814293;79;21476;-52
2020/12/10 08:27:15;;;;;;;17.52;4.85;;;;;;;-1.78;84.01;96030.27;1821295;77;21359;-51
2020/12/10 08:30:00;;;;;;;13.62;3.87;;;;;;;-1.74;83.76;96046.66;1849802;77;21110;-52
2020/12/10 08:32:28;;;;;;;5.35;2.45;;;;;;;-1.66;83.64;96043.89;1849882;77;20912;-52
2020/12/10 08:35:07;;;;;;;3.30;3.00;;;;;;;-1.58;83.31;96049.58;1849226;77;20972;-51
2020/12/10 08:37:39;;;;;;;8.50;4.20;;;;;;;-1.51;83.57;96057.40;1824218;77;21122;-52
2020/12/10 08:40:07;;;;;;;6.17;2.98;;;;;;;-1.52;82.64;96052.36;1848854;77;21411;-52
2020/12/10 08:42:35;;;;;;;45.55;6.75;;;;;;;-1.57;82.53;96049.95;1849622;77;20944;-52
2020/12/10 08:45:03;;;;;;;20.43;4.27;;;;;;;-1.60;83.15;96041.59;1834592;77;21109;-51
2020/12/10 08:47:34;;;;;;;30.90;4.60;;;;;;;-1.59;82.83;96047.90;1816159;79;21082;-52
2020/12/10 08:50:23;;;;;;;11.03;3.60;;;;;;;-1.57;83.21;96046.13;1816485;78;21561;-52
2020/12/10 08:53:04;;;;;;;15.30;4.15;;;;;;;-1.50;82.93;96041.68;1816620;79;21315;-52
2020/12/10 08:55:44;;;;;;;5.03;3.52;;;;;;;-1.48;82.86;96048.85;1816459;79;21570;-52
2020/12/10 08:58:23;;;;;;;14.83;4.60;;;;;;;-1.50;82.71;96051.44;1746167;80;21148;-51
2020/12/10 09:00:54;;;;;;;9.18;4.15;;;;;;;-1.51;82.94;96053.58;1729126;82;21084;-51
2020/12/10 09:03:24;;;;;;;6.95;4.65;;;;;;;-1.44;82.92;96036.86;1727264;81;21115;-51
2020/12/10 09:05:52;;;;;;;17.95;4.12;;;;;;;-1.36;83.17;96028.08;1718269;83;22262;-51
2020/12/10 09:08:20;;;;;;;7.10;3.92;;;;;;;-1.33;82.21;96034.80;1749661;82;21119;-52
2020/12/10 09:10:48;;;;;;;3.83;3.42;;;;;;;-1.37;82.31;96032.77;1765394;81;21055;-52
2020/12/10 09:13:17;;;;;;;;;;;;;;;-1.47;82.65;96039.04;1752286;80;21073;-52
2020/12/10 09:15:44;;;;;;;25.05;5.55;;;;;;;-1.49;83.01;96031.45;1729067;82;20235;-52
2020/12/10 09:18:12;;;;;;;17.52;4.80;;;;;;;-1.42;83.11;96027.00;1759021;80;21206;-51
2020/12/10 09:20:41;;;;;;;5.50;3.50;;;;;;;-1.26;83.00;96031.61;1758653;81;21139;-51
2020/12/10 09:23:10;;;;;;;5.12;3.50;;;;;;;-1.21;82.34;96020.83;1750520;82;21183;-53
2020/12/10 09:25:39;;;;;;;15.98;3.95;;;;;;;-1.21;82.50;96014.02;1750507;80;21072;-52
2020/12/10 09:28:08;;;;;;;10.13;3.42;;;;;;;-1.24;82.60;96016.66;1726969;82;21492;-51
2020/12/10 09:30:37;;;;;;;80.30;8.50;;;;;;;-1.27;82.81;96022.30;1740203;82;21105;-52
2020/12/10 09:33:07;;;;;;;25.62;6.72;;;;;;;-1.25;82.97;96020.53;1700591;83;21125;-52
2020/12/10 09:35:34;;;;;;;15.38;4.37;;;;;;;-1.11;83.30;96012.83;1703504;82;21116;-52
2020/12/10 09:38:05;;;;;;;22.35;5.15;;;;;;;-0.91;82.76;96014.31;1700710;84;21171;-51
2020/12/10 09:40:34;;;;;;;12.60;5.33;;;;;;;-0.85;81.96;95992.02;1700677;84;21572;-52
2020/12/10 09:43:02;;;;;;;4.53;3.67;;;;;;;-0.84;81.82;95978.83;1700959;82;21604;-52
2020/12/10 09:45:30;;;;;;;4.42;3.92;;;;;;;-0.79;81.95;95965.48;1700607;84;21167;-51
2020/12/10 09:47:58;;;;;;;5.53;4.00;;;;;;;-0.71;81.90;95957.57;1700875;84;21196;-52
2020/12/10 09:50:32;;;;;;;12.00;4.63;;;;;;;-0.78;81.68;95970.52;1732594;81;21064;-52
2020/12/10 09:58:15;;;;;;;14.65;5.40;;;;;;;-0.94;82.59;95976.62;1701389;82;21080;-53
2020/12/10 10:00:49;;;;;;;9.88;4.33;;;;;;;-0.95;82.64;95969.84;1751826;82;21064;-52
2020/12/10 10:03:13;;;;;;;5.78;4.08;;;;;;;-0.93;82.56;95980.81;1751899;80;21528;-51
2020/12/10 10:05:43;;;;;;;11.08;5.42;;;;;;;-0.97;82.42;95990.73;1730508;82;21152;-51
2020/12/10 10:08:10;;;;;;;13.75;5.50;;;;;;;-0.89;82.84;96012.09;1751920;82;21247;-52
2020/12/10 10:10:38;;;;;;;15.13;5.25;;;;;;;-0.76;82.34;96011.23;1751854;82;21089;-52
2020/12/10 10:13:05;;;;;;;4.45;3.77;;;;;;;-0.70;82.01;96021.66;1743109;81;21057;-52
2020/12/10 10:15:34;;;;;;;5.33;4.33;;;;;;;-0.70;81.51;96020.39;1741395;82;21561;-51
2020/12/10 10:18:01;;;;;;;4.58;4.03;;;;;;;-0.72;81.59;96006.84;1751951;82;21536;-52
2020/12/10 10:20:29;;;;;;;9.80;4.37;;;;;;;-0.69;81.54;95982.54;1723194;82;21205;-52
2020/12/10 10:22:57;;;;;;;12.37;4.78;;;;;;;-0.65;81.54;95975.19;1764798;81;21076;-52
2020/12/10 10:25:26;;;;;;;;;;;;;;;-0.72;81.62;95968.21;1751574;82;21080;-52
2020/12/10 10:27:53;;;;;;;13.00;5.10;;;;;;;-0.81;82.01;95988.91;1733267;82;20221;-52
2020/12/10 10:30:24;;;;;;;5.00;3.72;;;;;;;-0.86;82.46;95999.70;1767261;79;21068;-51
2020/12/10 10:32:51;;;;;;;6.47;4.53;;;;;;;-0.79;82.32;96003.69;1749013;82;22173;-51
2020/12/10 10:35:19;;;;;;;11.70;5.00;;;;;;;-0.82;82.26;95997.45;1764739;81;21131;-51
2020/12/10 10:37:47;;;;;;;20.00;7.12;;;;;;;-0.80;82.60;96000.77;1748978;82;21065;-51
2020/12/10 10:40:14;;;;;;;14.75;5.25;;;;;;;-0.70;82.14;95999.55;1764896;81;21072;-51
2020/12/10 10:42:42;;;;;;;25.62;7.15;;;;;;;-0.75;82.04;96003.53;1757489;80;21169;-50
2020/12/10 10:45:11;;;;;;;12.47;5.20;;;;;;;-0.81;82.34;95999.92;1742764;81;21212;-52
2020/12/10 10:47:39;;;;;;;17.37;6.22;;;;;;;-0.81;82.33;95990.18;1774700;80;21180;-53
2020/12/10 10:50:08;;;;;;;11.60;4.83;;;;;;;-0.86;82.59;96000.98;1774641;80;21041;-52
2020/12/10 10:52:36;;;;;;;27.90;6.62;;;;;;;-0.91;82.78;95991.39;1750246;80;21091;-54
2020/12/10 10:55:04;;;;;;;16.77;5.60;;;;;;;-0.95;83.12;95981.31;1788933;80;21038;-52
2020/12/10 10:57:32;;;;;;;5.62;4.85;;;;;;;-0.84;83.28;95971.18;1782459;79;21188;-52
2020/12/10 11:00:00;;;;;;;11.75;5.50;;;;;;;-0.82;83.17;95965.61;1758629;80;21557;-51
2020/12/10 11:02:36;;;;;;;10.38;5.25;;;;;;;-0.84;83.14;95970.77;1742677;82;21195;-51
2020/12/10 11:05:04;;;;;;;13.00;5.83;;;;;;;-0.83;83.10;95958.84;1723541;80;21494;-51
2020/12/10 11:07:31;;;;;;;12.28;5.12;;;;;;;-0.77;83.26;95949.27;1774566;80;21129;-52
2020/12/10 11:10:01;;;;;;;8.70;5.12;;;;;;;-0.63;82.90;95952.58;1774408;80;21205;-51
2020/12/10 11:12:29;;;;;;;8.38;4.55;;;;;;;-0.59;82.54;95950.31;1768252;80;21163;-52
2020/12/10 11:14:56;;;;;;;12.55;5.03;;;;;;;-0.61;82.42;95961.44;1789003;80;21014;-52
2020/12/10 11:17:24;;;;;;;16.77;5.50;;;;;;;-0.70;82.47;95966.44;1788947;80;21069;-52
2020/12/10 11:19:52;;;;;;;8.98;5.60;;;;;;;-0.73;82.90;95949.16;1778627;79;21130;-53
2020/12/10 11:22:20;;;;;;;19.02;7.30;;;;;;;-0.72;82.99;95960.57;1748728;81;21328;-52
2020/12/10 11:24:47;;;;;;;23.12;7.17;;;;;;;-0.72;82.97;95966.94;1764710;81;21088;-51
2020/12/10 11:27:20;;;;;;;12.28;6.33;;;;;;;-0.71;82.97;95960.12;1749081;80;21628;-51
2020/12/10 11:29:48;;;;;;;18.90;6.42;;;;;;;-0.68;83.17;95952.37;1764820;80;21063;-53
2020/12/10 11:32:16;;;;;;;10.03;5.17;;;;;;;-0.59;83.02;95949.05;1749259;82;21514;-52
2020/12/10 11:34:45;;;;;;;;;;;;;;;-0.61;82.80;95968.66;1767515;80;21579;-52
2020/12/10 11:37:14;;;;;;;24.65;7.03;;;;;;;-0.57;82.75;95954.09;1728362;83;20513;-52
2020/12/10 11:39:42;;;;;;;12.78;4.83;;;;;;;-0.51;82.41;95955.56;1751844;82;21144;-53
2020/12/10 11:42:10;;;;;;;16.55;5.72;;;;;;;-0.50;82.37;95973.80;1720997;82;21149;-52
2020/12/10 11:44:41;;;;;;;15.53;6.22;;;;;;;-0.50;82.37;95973.80;1787182;79;21476;-51
2020/12/10 11:47:08;;;;;;;18.75;6.60;;;;;;;-0.48;82.54;95958.00;1749010;80;21308;-51
2020/12/10 11:49:36;;;;;;;;;;;;;;;-0.43;82.14;95962.06;1767351;80;21099;-52
2020/12/10 11:52:04;;;;;;;17.02;5.80;;;;;;;-0.40;82.12;95970.02;1749275;82;20218;-52
2020/12/10 11:54:32;;;;;;;15.38;6.47;;;;;;;-0.40;81.82;95963.65;1764701;80;21154;-51